sensor_id;sensor_type;location;lat;lon;timestamp;P1;durP1;ratioP1;P2;durP2;ratioP2
8232;SDS011;4157;48.074;9.952;2023-05-23T00:01:04;15.75;;;10.90;;
8232;SDS011;4157;48.074;9.952;2023-05-23T00:03:32;12.30;;;9.98;;
8232;SDS011;4157;48.074;9.952;2023-05-23T00:06:00;12.85;;;10.60;;
8232;SDS011;4157;48.074;9.952;2023-05-23T00:08:29;11.43;;;10.02;;
8232;SDS011;4157;48.074;9.952;2023-05-23T00:10:58;12.85;;;9.63;;
8232;SDS011;4157;48.074;9.952;2023-05-23T00:13:25;13.80;;;10.55;;
8232;SDS011;4157;48.074;9.952;2023-05-23T00:15:53;14.10;;;10.93;;
8232;SDS011;4157;48.074;9.952;2023-05-23T00:18:21;13.25;;;10.38;;
8232;SDS011;4157;48.074;9.952;2023-05-23T00:20:50;12.98;;;10.15;;
8232;SDS011;4157;48.074;9.952;2023-05-23T00:23:18;11.13;;;9.50;;
8232;SDS011;4157;48.074;9.952;2023-05-23T00:25:47;14.07;;;11.20;;
8232;SDS011;4157;48.074;9.952;2023-05-23T00:28:18;12.68;;;10.38;;
8232;SDS011;4157;48.074;9.952;2023-05-23T00:30:46;12.38;;;10.75;;
8232;SDS011;4157;48.074;9.952;2023-05-23T00:33:14;13.48;;;10.18;;
8232;SDS011;4157;48.074;9.952;2023-05-23T00:35:42;11.65;;;10.18;;
8232;SDS011;4157;48.074;9.952;2023-05-23T00:38:10;16.10;;;10.20;;
8232;SDS011;4157;48.074;9.952;2023-05-23T00:40:39;13.32;;;11.23;;
8232;SDS011;4157;48.074;9.952;2023-05-23T00:43:06;13.30;;;9.88;;
8232;SDS011;4157;48.074;9.952;2023-05-23T00:45:35;13.63;;;10.20;;
8232;SDS011;4157;48.074;9.952;2023-05-23T00:48:04;13.70;;;10.35;;
8232;SDS011;4157;48.074;9.952;2023-05-23T00:50:33;14.57;;;10.70;;
8232;SDS011;4157;48.074;9.952;2023-05-23T00:53:01;14.43;;;10.57;;
8232;SDS011;4157;48.074;9.952;2023-05-23T00:55:30;13.48;;;9.85;;
8232;SDS011;4157;48.074;9.952;2023-05-23T00:57:58;13.73;;;11.00;;
8232;SDS011;4157;48.074;9.952;2023-05-23T01:00:26;15.27;;;10.35;;
8232;SDS011;4157;48.074;9.952;2023-05-23T01:02:56;13.45;;;10.52;;
8232;SDS011;4157;48.074;9.952;2023-05-23T01:05:24;14.15;;;10.57;;
8232;SDS011;4157;48.074;9.952;2023-05-23T01:07:53;14.48;;;10.60;;
8232;SDS011;4157;48.074;9.952;2023-05-23T01:10:22;14.00;;;10.93;;
8232;SDS011;4157;48.074;9.952;2023-05-23T01:12:54;13.52;;;10.15;;
8232;SDS011;4157;48.074;9.952;2023-05-23T01:15:24;13.88;;;11.38;;
8232;SDS011;4157;48.074;9.952;2023-05-23T01:17:57;13.48;;;10.68;;
8232;SDS011;4157;48.074;9.952;2023-05-23T01:20:27;18.00;;;11.35;;
8232;SDS011;4157;48.074;9.952;2023-05-23T01:23:07;13.40;;;10.07;;
8232;SDS011;4157;48.074;9.952;2023-05-23T01:25:45;13.25;;;10.55;;
8232;SDS011;4157;48.074;9.952;2023-05-23T01:28:20;11.27;;;10.02;;
8232;SDS011;4157;48.074;9.952;2023-05-23T01:30:49;13.35;;;10.88;;
8232;SDS011;4157;48.074;9.952;2023-05-23T01:33:18;14.13;;;10.27;;
8232;SDS011;4157;48.074;9.952;2023-05-23T01:35:46;13.10;;;10.10;;
8232;SDS011;4157;48.074;9.952;2023-05-23T01:38:15;13.95;;;10.55;;
8232;SDS011;4157;48.074;9.952;2023-05-23T01:40:43;13.52;;;11.48;;
8232;SDS011;4157;48.074;9.952;2023-05-23T01:43:11;12.15;;;9.30;;
8232;SDS011;4157;48.074;9.952;2023-05-23T01:45:40;13.38;;;11.15;;
8232;SDS011;4157;48.074;9.952;2023-05-23T01:48:08;15.40;;;11.73;;
8232;SDS011;4157;48.074;9.952;2023-05-23T01:50:36;14.10;;;10.75;;
8232;SDS011;4157;48.074;9.952;2023-05-23T01:53:05;13.10;;;10.80;;
8232;SDS011;4157;48.074;9.952;2023-05-23T01:55:33;13.05;;;10.13;;
8232;SDS011;4157;48.074;9.952;2023-05-23T01:58:01;12.93;;;10.35;;
8232;SDS011;4157;48.074;9.952;2023-05-23T02:00:29;12.55;;;10.43;;
8232;SDS011;4157;48.074;9.952;2023-05-23T02:02:58;11.75;;;10.00;;
8232;SDS011;4157;48.074;9.952;2023-05-23T02:05:26;16.67;;;11.00;;
8232;SDS011;4157;48.074;9.952;2023-05-23T02:07:53;11.63;;;10.05;;
8232;SDS011;4157;48.074;9.952;2023-05-23T02:10:21;13.50;;;10.93;;
8232;SDS011;4157;48.074;9.952;2023-05-23T02:12:49;12.13;;;9.98;;
8232;SDS011;4157;48.074;9.952;2023-05-23T02:15:17;13.77;;;11.73;;
8232;SDS011;4157;48.074;9.952;2023-05-23T02:17:44;13.50;;;11.52;;
8232;SDS011;4157;48.074;9.952;2023-05-23T02:20:14;13.65;;;10.98;;
8232;SDS011;4157;48.074;9.952;2023-05-23T02:22:43;15.18;;;11.40;;
8232;SDS011;4157;48.074;9.952;2023-05-23T02:25:11;15.57;;;11.10;;
8232;SDS011;4157;48.074;9.952;2023-05-23T02:27:40;13.50;;;10.82;;
8232;SDS011;4157;48.074;9.952;2023-05-23T02:30:08;13.60;;;11.32;;
8232;SDS011;4157;48.074;9.952;2023-05-23T02:32:36;21.50;;;11.73;;
8232;SDS011;4157;48.074;9.952;2023-05-23T02:35:04;12.27;;;10.75;;
8232;SDS011;4157;48.074;9.952;2023-05-23T02:37:33;15.80;;;11.85;;
8232;SDS011;4157;48.074;9.952;2023-05-23T02:40:01;14.23;;;11.23;;
8232;SDS011;4157;48.074;9.952;2023-05-23T02:42:29;14.00;;;10.70;;
8232;SDS011;4157;48.074;9.952;2023-05-23T02:44:56;11.48;;;9.98;;
8232;SDS011;4157;48.074;9.952;2023-05-23T02:47:24;13.73;;;11.48;;
8232;SDS011;4157;48.074;9.952;2023-05-23T02:49:52;14.35;;;11.55;;
8232;SDS011;4157;48.074;9.952;2023-05-23T02:52:19;13.00;;;11.40;;
8232;SDS011;4157;48.074;9.952;2023-05-23T02:54:48;14.10;;;12.15;;
8232;SDS011;4157;48.074;9.952;2023-05-23T02:57:16;14.57;;;11.60;;
8232;SDS011;4157;48.074;9.952;2023-05-23T02:59:44;15.63;;;12.27;;
8232;SDS011;4157;48.074;9.952;2023-05-23T03:02:12;14.40;;;12.05;;
8232;SDS011;4157;48.074;9.952;2023-05-23T03:04:39;14.55;;;11.73;;
8232;SDS011;4157;48.074;9.952;2023-05-23T03:07:07;14.02;;;11.60;;
8232;SDS011;4157;48.074;9.952;2023-05-23T03:09:36;13.85;;;11.68;;
8232;SDS011;4157;48.074;9.952;2023-05-23T03:12:05;15.40;;;10.80;;
8232;SDS011;4157;48.074;9.952;2023-05-23T03:14:33;16.00;;;12.43;;
8232;SDS011;4157;48.074;9.952;2023-05-23T03:17:00;17.83;;;11.50;;
8232;SDS011;4157;48.074;9.952;2023-05-23T03:19:29;17.05;;;12.43;;
8232;SDS011;4157;48.074;9.952;2023-05-23T03:21:57;14.75;;;11.73;;
8232;SDS011;4157;48.074;9.952;2023-05-23T03:24:24;14.45;;;10.70;;
8232;SDS011;4157;48.074;9.952;2023-05-23T03:26:52;16.00;;;11.18;;
8232;SDS011;4157;48.074;9.952;2023-05-23T03:29:21;14.77;;;11.32;;
8232;SDS011;4157;48.074;9.952;2023-05-23T03:31:49;13.75;;;10.73;;
8232;SDS011;4157;48.074;9.952;2023-05-23T03:34:17;15.43;;;11.60;;
8232;SDS011;4157;48.074;9.952;2023-05-23T03:36:44;13.45;;;10.23;;
8232;SDS011;4157;48.074;9.952;2023-05-23T03:39:12;14.13;;;11.00;;
8232;SDS011;4157;48.074;9.952;2023-05-23T03:41:40;14.23;;;12.18;;
8232;SDS011;4157;48.074;9.952;2023-05-23T03:44:08;16.42;;;12.95;;
8232;SDS011;4157;48.074;9.952;2023-05-23T03:46:37;15.98;;;12.35;;
8232;SDS011;4157;48.074;9.952;2023-05-23T03:49:04;16.67;;;11.93;;
8232;SDS011;4157;48.074;9.952;2023-05-23T03:51:32;16.63;;;12.07;;
8232;SDS011;4157;48.074;9.952;2023-05-23T03:54:00;16.00;;;12.57;;
8232;SDS011;4157;48.074;9.952;2023-05-23T03:56:28;14.93;;;12.18;;
8232;SDS011;4157;48.074;9.952;2023-05-23T03:58:55;14.80;;;11.77;;
8232;SDS011;4157;48.074;9.952;2023-05-23T04:01:23;17.33;;;12.57;;
8232;SDS011;4157;48.074;9.952;2023-05-23T04:03:52;16.75;;;13.20;;
8232;SDS011;4157;48.074;9.952;2023-05-23T04:06:21;14.00;;;11.93;;
8232;SDS011;4157;48.074;9.952;2023-05-23T04:08:49;15.82;;;11.98;;
8232;SDS011;4157;48.074;9.952;2023-05-23T04:11:17;17.35;;;12.93;;
8232;SDS011;4157;48.074;9.952;2023-05-23T04:13:47;16.17;;;12.48;;
8232;SDS011;4157;48.074;9.952;2023-05-23T04:16:16;16.27;;;12.77;;
8232;SDS011;4157;48.074;9.952;2023-05-23T04:18:44;16.83;;;13.18;;
8232;SDS011;4157;48.074;9.952;2023-05-23T04:21:15;17.13;;;14.05;;
8232;SDS011;4157;48.074;9.952;2023-05-23T04:23:51;16.92;;;12.60;;
8232;SDS011;4157;48.074;9.952;2023-05-23T04:26:19;18.85;;;13.93;;
8232;SDS011;4157;48.074;9.952;2023-05-23T04:28:51;15.07;;;12.10;;
8232;SDS011;4157;48.074;9.952;2023-05-23T04:31:20;16.40;;;12.52;;
8232;SDS011;4157;48.074;9.952;2023-05-23T04:33:47;16.95;;;13.35;;
8232;SDS011;4157;48.074;9.952;2023-05-23T04:36:19;15.98;;;12.93;;
8232;SDS011;4157;48.074;9.952;2023-05-23T04:38:51;17.40;;;13.25;;
8232;SDS011;4157;48.074;9.952;2023-05-23T04:41:19;17.52;;;13.38;;
8232;SDS011;4157;48.074;9.952;2023-05-23T04:44:03;18.70;;;13.50;;
8232;SDS011;4157;48.074;9.952;2023-05-23T04:47:02;19.30;;;13.98;;
8232;SDS011;4157;48.074;9.952;2023-05-23T04:49:54;18.73;;;14.52;;
8232;SDS011;4157;48.074;9.952;2023-05-23T04:52:23;19.75;;;14.27;;
8232;SDS011;4157;48.074;9.952;2023-05-23T04:54:52;21.67;;;15.60;;
8232;SDS011;4157;48.074;9.952;2023-05-23T04:57:20;20.50;;;16.00;;
8232;SDS011;4157;48.074;9.952;2023-05-23T04:59:48;24.10;;;16.30;;
8232;SDS011;4157;48.074;9.952;2023-05-23T05:02:16;25.42;;;18.38;;
8232;SDS011;4157;48.074;9.952;2023-05-23T05:04:44;27.45;;;19.85;;
8232;SDS011;4157;48.074;9.952;2023-05-23T05:07:11;26.88;;;19.95;;
8232;SDS011;4157;48.074;9.952;2023-05-23T05:09:40;29.85;;;20.40;;
8232;SDS011;4157;48.074;9.952;2023-05-23T05:12:10;29.40;;;21.15;;
8232;SDS011;4157;48.074;9.952;2023-05-23T05:14:38;27.23;;;20.75;;
8232;SDS011;4157;48.074;9.952;2023-05-23T05:17:06;28.13;;;20.45;;
8232;SDS011;4157;48.074;9.952;2023-05-23T05:19:46;27.55;;;19.98;;
8232;SDS011;4157;48.074;9.952;2023-05-23T05:22:14;29.00;;;20.83;;
8232;SDS011;4157;48.074;9.952;2023-05-23T05:24:43;31.33;;;19.80;;
8232;SDS011;4157;48.074;9.952;2023-05-23T05:27:11;29.90;;;20.52;;
8232;SDS011;4157;48.074;9.952;2023-05-23T05:29:39;27.80;;;20.60;;
8232;SDS011;4157;48.074;9.952;2023-05-23T05:32:06;30.48;;;22.13;;
8232;SDS011;4157;48.074;9.952;2023-05-23T05:34:34;30.80;;;22.15;;
8232;SDS011;4157;48.074;9.952;2023-05-23T05:37:02;32.83;;;23.77;;
8232;SDS011;4157;48.074;9.952;2023-05-23T05:39:31;36.03;;;25.73;;
8232;SDS011;4157;48.074;9.952;2023-05-23T05:42:00;32.88;;;24.25;;
8232;SDS011;4157;48.074;9.952;2023-05-23T05:44:28;34.17;;;24.63;;
8232;SDS011;4157;48.074;9.952;2023-05-23T05:46:57;36.10;;;26.08;;
8232;SDS011;4157;48.074;9.952;2023-05-23T05:49:24;36.08;;;26.50;;
8232;SDS011;4157;48.074;9.952;2023-05-23T05:51:53;41.67;;;29.02;;
8232;SDS011;4157;48.074;9.952;2023-05-23T05:54:21;36.45;;;25.40;;
8232;SDS011;4157;48.074;9.952;2023-05-23T05:56:49;39.25;;;27.52;;
8232;SDS011;4157;48.074;9.952;2023-05-23T05:59:18;38.10;;;25.92;;
8232;SDS011;4157;48.074;9.952;2023-05-23T06:01:45;39.75;;;28.10;;
8232;SDS011;4157;48.074;9.952;2023-05-23T06:04:16;41.75;;;27.35;;
8232;SDS011;4157;48.074;9.952;2023-05-23T06:06:44;44.38;;;30.55;;
8232;SDS011;4157;48.074;9.952;2023-05-23T06:09:11;39.95;;;28.23;;
8232;SDS011;4157;48.074;9.952;2023-05-23T06:11:39;38.97;;;29.35;;
8232;SDS011;4157;48.074;9.952;2023-05-23T06:14:07;42.67;;;29.80;;
8232;SDS011;4157;48.074;9.952;2023-05-23T06:16:38;37.85;;;27.73;;
8232;SDS011;4157;48.074;9.952;2023-05-23T06:19:06;42.38;;;28.35;;
8232;SDS011;4157;48.074;9.952;2023-05-23T06:21:34;40.20;;;27.75;;
8232;SDS011;4157;48.074;9.952;2023-05-23T06:24:04;42.78;;;28.23;;
8232;SDS011;4157;48.074;9.952;2023-05-23T06:26:32;43.42;;;30.85;;
8232;SDS011;4157;48.074;9.952;2023-05-23T06:28:59;43.05;;;27.27;;
8232;SDS011;4157;48.074;9.952;2023-05-23T06:31:27;37.40;;;27.85;;
8232;SDS011;4157;48.074;9.952;2023-05-23T06:33:56;44.90;;;30.02;;
8232;SDS011;4157;48.074;9.952;2023-05-23T06:36:24;42.95;;;29.90;;
8232;SDS011;4157;48.074;9.952;2023-05-23T06:38:51;41.50;;;27.70;;
8232;SDS011;4157;48.074;9.952;2023-05-23T06:41:19;47.70;;;34.00;;
8232;SDS011;4157;48.074;9.952;2023-05-23T06:43:47;46.20;;;31.88;;
8232;SDS011;4157;48.074;9.952;2023-05-23T06:46:22;42.42;;;31.20;;
8232;SDS011;4157;48.074;9.952;2023-05-23T06:48:49;54.08;;;33.35;;
8232;SDS011;4157;48.074;9.952;2023-05-23T06:51:19;49.00;;;32.22;;
8232;SDS011;4157;48.074;9.952;2023-05-23T06:53:46;44.70;;;31.17;;
8232;SDS011;4157;48.074;9.952;2023-05-23T06:56:14;48.15;;;33.90;;
8232;SDS011;4157;48.074;9.952;2023-05-23T06:58:53;46.05;;;32.40;;
8232;SDS011;4157;48.074;9.952;2023-05-23T07:01:21;52.90;;;34.05;;
8232;SDS011;4157;48.074;9.952;2023-05-23T07:03:49;49.60;;;32.80;;
8232;SDS011;4157;48.074;9.952;2023-05-23T07:06:19;45.42;;;30.67;;
8232;SDS011;4157;48.074;9.952;2023-05-23T07:08:47;50.28;;;34.30;;
8232;SDS011;4157;48.074;9.952;2023-05-23T07:11:15;49.38;;;34.05;;
8232;SDS011;4157;48.074;9.952;2023-05-23T07:13:47;49.83;;;33.65;;
8232;SDS011;4157;48.074;9.952;2023-05-23T07:16:27;52.95;;;34.08;;
8232;SDS011;4157;48.074;9.952;2023-05-23T07:19:02;46.45;;;30.85;;
8232;SDS011;4157;48.074;9.952;2023-05-23T07:21:33;50.70;;;33.40;;
8232;SDS011;4157;48.074;9.952;2023-05-23T07:24:01;52.95;;;33.15;;
8232;SDS011;4157;48.074;9.952;2023-05-23T07:26:29;49.83;;;33.08;;
8232;SDS011;4157;48.074;9.952;2023-05-23T07:28:57;48.80;;;32.10;;
8232;SDS011;4157;48.074;9.952;2023-05-23T07:31:25;46.92;;;32.35;;
8232;SDS011;4157;48.074;9.952;2023-05-23T07:33:56;47.45;;;31.20;;
8232;SDS011;4157;48.074;9.952;2023-05-23T07:36:30;47.35;;;32.53;;
8232;SDS011;4157;48.074;9.952;2023-05-23T07:39:01;46.85;;;31.85;;
8232;SDS011;4157;48.074;9.952;2023-05-23T07:41:29;45.50;;;32.53;;
8232;SDS011;4157;48.074;9.952;2023-05-23T07:43:56;50.58;;;32.83;;
8232;SDS011;4157;48.074;9.952;2023-05-23T07:46:24;50.20;;;34.88;;
8232;SDS011;4157;48.074;9.952;2023-05-23T07:48:52;47.97;;;34.50;;
8232;SDS011;4157;48.074;9.952;2023-05-23T07:51:20;49.17;;;34.40;;
8232;SDS011;4157;48.074;9.952;2023-05-23T07:53:49;49.47;;;32.33;;
8232;SDS011;4157;48.074;9.952;2023-05-23T07:56:21;49.13;;;35.00;;
8232;SDS011;4157;48.074;9.952;2023-05-23T07:58:49;46.88;;;34.38;;
8232;SDS011;4157;48.074;9.952;2023-05-23T08:01:17;46.25;;;34.20;;
8232;SDS011;4157;48.074;9.952;2023-05-23T08:03:56;50.67;;;32.17;;
8232;SDS011;4157;48.074;9.952;2023-05-23T08:06:30;50.60;;;33.58;;
8232;SDS011;4157;48.074;9.952;2023-05-23T08:09:00;45.72;;;32.47;;
8232;SDS011;4157;48.074;9.952;2023-05-23T08:11:49;50.03;;;34.28;;
8232;SDS011;4157;48.074;9.952;2023-05-23T08:14:19;51.45;;;34.75;;
8232;SDS011;4157;48.074;9.952;2023-05-23T08:17:04;45.53;;;31.95;;
8232;SDS011;4157;48.074;9.952;2023-05-23T08:19:32;45.33;;;32.33;;
8232;SDS011;4157;48.074;9.952;2023-05-23T08:22:01;44.25;;;30.55;;
8232;SDS011;4157;48.074;9.952;2023-05-23T08:24:29;44.38;;;31.80;;
8232;SDS011;4157;48.074;9.952;2023-05-23T08:27:00;44.90;;;31.98;;
8232;SDS011;4157;48.074;9.952;2023-05-23T08:29:30;46.90;;;32.22;;
8232;SDS011;4157;48.074;9.952;2023-05-23T08:31:59;44.22;;;31.83;;
8232;SDS011;4157;48.074;9.952;2023-05-23T08:34:27;44.85;;;30.92;;
8232;SDS011;4157;48.074;9.952;2023-05-23T08:36:56;46.88;;;33.38;;
8232;SDS011;4157;48.074;9.952;2023-05-23T08:39:24;49.75;;;34.13;;
8232;SDS011;4157;48.074;9.952;2023-05-23T08:42:12;49.70;;;33.65;;
8232;SDS011;4157;48.074;9.952;2023-05-23T08:44:40;50.47;;;35.72;;
8232;SDS011;4157;48.074;9.952;2023-05-23T08:47:08;46.60;;;33.50;;
8232;SDS011;4157;48.074;9.952;2023-05-23T08:49:48;51.63;;;35.70;;
8232;SDS011;4157;48.074;9.952;2023-05-23T08:52:16;51.85;;;36.92;;
8232;SDS011;4157;48.074;9.952;2023-05-23T08:54:48;49.30;;;35.38;;
8232;SDS011;4157;48.074;9.952;2023-05-23T08:57:17;46.10;;;34.47;;
8232;SDS011;4157;48.074;9.952;2023-05-23T08:59:50;50.03;;;36.08;;
8232;SDS011;4157;48.074;9.952;2023-05-23T09:02:19;49.33;;;34.40;;
8232;SDS011;4157;48.074;9.952;2023-05-23T09:04:48;49.90;;;36.00;;
8232;SDS011;4157;48.074;9.952;2023-05-23T09:07:21;46.78;;;33.17;;
8232;SDS011;4157;48.074;9.952;2023-05-23T09:09:50;49.00;;;35.42;;
8232;SDS011;4157;48.074;9.952;2023-05-23T09:12:19;53.00;;;36.60;;
8232;SDS011;4157;48.074;9.952;2023-05-23T09:14:48;48.70;;;33.92;;
8232;SDS011;4157;48.074;9.952;2023-05-23T09:17:17;46.22;;;34.15;;
8232;SDS011;4157;48.074;9.952;2023-05-23T09:19:45;48.00;;;34.90;;
8232;SDS011;4157;48.074;9.952;2023-05-23T09:22:24;45.03;;;33.60;;
8232;SDS011;4157;48.074;9.952;2023-05-23T09:24:59;50.75;;;34.13;;
8232;SDS011;4157;48.074;9.952;2023-05-23T09:27:29;49.25;;;35.35;;
8232;SDS011;4157;48.074;9.952;2023-05-23T09:29:57;47.67;;;34.53;;
8232;SDS011;4157;48.074;9.952;2023-05-23T09:32:26;45.10;;;33.58;;
8232;SDS011;4157;48.074;9.952;2023-05-23T09:34:54;46.97;;;32.83;;
8232;SDS011;4157;48.074;9.952;2023-05-23T09:37:24;41.30;;;31.60;;
8232;SDS011;4157;48.074;9.952;2023-05-23T09:39:56;45.55;;;32.65;;
8232;SDS011;4157;48.074;9.952;2023-05-23T09:42:24;47.80;;;30.80;;
8232;SDS011;4157;48.074;9.952;2023-05-23T09:44:53;46.50;;;32.95;;
8232;SDS011;4157;48.074;9.952;2023-05-23T09:47:21;43.60;;;31.95;;
8232;SDS011;4157;48.074;9.952;2023-05-23T09:49:49;45.83;;;32.67;;
8232;SDS011;4157;48.074;9.952;2023-05-23T09:52:17;39.97;;;31.13;;
8232;SDS011;4157;48.074;9.952;2023-05-23T09:54:45;39.92;;;30.77;;
8232;SDS011;4157;48.074;9.952;2023-05-23T09:57:14;41.30;;;29.50;;
8232;SDS011;4157;48.074;9.952;2023-05-23T09:59:44;39.92;;;29.73;;
8232;SDS011;4157;48.074;9.952;2023-05-23T10:02:14;39.90;;;30.48;;
8232;SDS011;4157;48.074;9.952;2023-05-23T10:04:44;39.83;;;29.05;;
8232;SDS011;4157;48.074;9.952;2023-05-23T10:07:12;35.28;;;26.67;;
8232;SDS011;4157;48.074;9.952;2023-05-23T10:09:41;33.60;;;27.98;;
8232;SDS011;4157;48.074;9.952;2023-05-23T10:12:34;33.85;;;27.05;;
8232;SDS011;4157;48.074;9.952;2023-05-23T10:15:03;37.40;;;26.45;;
8232;SDS011;4157;48.074;9.952;2023-05-23T10:17:35;33.03;;;24.75;;
8232;SDS011;4157;48.074;9.952;2023-05-23T10:20:03;31.08;;;24.05;;
8232;SDS011;4157;48.074;9.952;2023-05-23T10:22:33;31.70;;;25.38;;
8232;SDS011;4157;48.074;9.952;2023-05-23T10:25:01;34.60;;;24.88;;
8232;SDS011;4157;48.074;9.952;2023-05-23T10:27:30;29.63;;;24.25;;
8232;SDS011;4157;48.074;9.952;2023-05-23T10:29:58;35.65;;;28.33;;
8232;SDS011;4157;48.074;9.952;2023-05-23T10:32:26;32.17;;;25.08;;
8232;SDS011;4157;48.074;9.952;2023-05-23T10:34:58;31.00;;;23.88;;
8232;SDS011;4157;48.074;9.952;2023-05-23T10:37:30;32.58;;;24.40;;
8232;SDS011;4157;48.074;9.952;2023-05-23T10:40:00;31.77;;;25.45;;
8232;SDS011;4157;48.074;9.952;2023-05-23T10:42:32;36.22;;;27.35;;
8232;SDS011;4157;48.074;9.952;2023-05-23T10:45:14;29.48;;;23.52;;
8232;SDS011;4157;48.074;9.952;2023-05-23T10:47:42;35.55;;;26.35;;
8232;SDS011;4157;48.074;9.952;2023-05-23T10:50:16;33.08;;;26.63;;
8232;SDS011;4157;48.074;9.952;2023-05-23T10:52:58;31.80;;;24.35;;
8232;SDS011;4157;48.074;9.952;2023-05-23T10:55:30;34.92;;;27.05;;
8232;SDS011;4157;48.074;9.952;2023-05-23T10:58:08;35.00;;;25.95;;
8232;SDS011;4157;48.074;9.952;2023-05-23T11:00:37;30.90;;;23.90;;
8232;SDS011;4157;48.074;9.952;2023-05-23T11:03:06;29.33;;;22.98;;
8232;SDS011;4157;48.074;9.952;2023-05-23T11:05:37;30.35;;;23.95;;
8232;SDS011;4157;48.074;9.952;2023-05-23T11:08:13;27.85;;;21.98;;
8232;SDS011;4157;48.074;9.952;2023-05-23T11:10:52;25.70;;;20.30;;
8232;SDS011;4157;48.074;9.952;2023-05-23T11:13:20;24.73;;;19.95;;
8232;SDS011;4157;48.074;9.952;2023-05-23T11:15:49;23.63;;;18.17;;
8232;SDS011;4157;48.074;9.952;2023-05-23T11:18:21;25.10;;;20.15;;
8232;SDS011;4157;48.074;9.952;2023-05-23T11:20:51;28.52;;;20.80;;
8232;SDS011;4157;48.074;9.952;2023-05-23T11:23:19;25.42;;;20.40;;
8232;SDS011;4157;48.074;9.952;2023-05-23T11:25:48;26.55;;;22.05;;
8232;SDS011;4157;48.074;9.952;2023-05-23T11:28:16;36.33;;;23.38;;
8232;SDS011;4157;48.074;9.952;2023-05-23T11:30:46;31.90;;;23.38;;
8232;SDS011;4157;48.074;9.952;2023-05-23T11:33:14;30.17;;;24.00;;
8232;SDS011;4157;48.074;9.952;2023-05-23T11:35:43;29.30;;;23.48;;
8232;SDS011;4157;48.074;9.952;2023-05-23T11:38:13;24.85;;;21.45;;
8232;SDS011;4157;48.074;9.952;2023-05-23T11:40:41;27.75;;;22.70;;
8232;SDS011;4157;48.074;9.952;2023-05-23T11:43:10;28.00;;;23.00;;
8232;SDS011;4157;48.074;9.952;2023-05-23T11:45:38;29.52;;;22.42;;
8232;SDS011;4157;48.074;9.952;2023-05-23T11:48:06;25.33;;;21.42;;
8232;SDS011;4157;48.074;9.952;2023-05-23T11:50:41;28.77;;;21.83;;
8232;SDS011;4157;48.074;9.952;2023-05-23T11:53:10;33.38;;;25.48;;
8232;SDS011;4157;48.074;9.952;2023-05-23T11:55:39;32.60;;;23.98;;
8232;SDS011;4157;48.074;9.952;2023-05-23T11:58:07;32.10;;;24.00;;
8232;SDS011;4157;48.074;9.952;2023-05-23T12:00:41;27.83;;;23.17;;
8232;SDS011;4157;48.074;9.952;2023-05-23T12:03:09;31.10;;;22.92;;
8232;SDS011;4157;48.074;9.952;2023-05-23T12:05:37;30.60;;;22.70;;
8232;SDS011;4157;48.074;9.952;2023-05-23T12:08:05;29.40;;;23.00;;
8232;SDS011;4157;48.074;9.952;2023-05-23T12:10:32;27.25;;;22.60;;
8232;SDS011;4157;48.074;9.952;2023-05-23T12:13:01;27.20;;;22.52;;
8232;SDS011;4157;48.074;9.952;2023-05-23T12:15:30;28.92;;;24.52;;
8232;SDS011;4157;48.074;9.952;2023-05-23T12:17:58;28.70;;;22.85;;
8232;SDS011;4157;48.074;9.952;2023-05-23T12:20:25;28.27;;;23.48;;
8232;SDS011;4157;48.074;9.952;2023-05-23T12:22:53;28.77;;;24.20;;
8232;SDS011;4157;48.074;9.952;2023-05-23T12:25:23;27.75;;;22.75;;
8232;SDS011;4157;48.074;9.952;2023-05-23T12:27:52;28.55;;;23.80;;
8232;SDS011;4157;48.074;9.952;2023-05-23T12:30:22;31.23;;;23.10;;
8232;SDS011;4157;48.074;9.952;2023-05-23T12:32:49;25.55;;;20.58;;
8232;SDS011;4157;48.074;9.952;2023-05-23T12:35:17;24.10;;;19.30;;
8232;SDS011;4157;48.074;9.952;2023-05-23T12:37:48;25.42;;;20.67;;
8232;SDS011;4157;48.074;9.952;2023-05-23T12:40:19;27.42;;;19.73;;
8232;SDS011;4157;48.074;9.952;2023-05-23T12:42:50;26.58;;;21.73;;
8232;SDS011;4157;48.074;9.952;2023-05-23T12:45:18;23.38;;;19.80;;
8232;SDS011;4157;48.074;9.952;2023-05-23T12:47:47;25.95;;;17.85;;
8232;SDS011;4157;48.074;9.952;2023-05-23T12:50:15;24.98;;;19.48;;
8232;SDS011;4157;48.074;9.952;2023-05-23T12:52:43;23.80;;;18.27;;
8232;SDS011;4157;48.074;9.952;2023-05-23T12:55:11;24.70;;;18.17;;
8232;SDS011;4157;48.074;9.952;2023-05-23T12:57:39;20.25;;;17.60;;
8232;SDS011;4157;48.074;9.952;2023-05-23T13:00:07;21.33;;;17.83;;
8232;SDS011;4157;48.074;9.952;2023-05-23T13:02:35;20.30;;;18.13;;
8232;SDS011;4157;48.074;9.952;2023-05-23T13:05:05;21.50;;;18.55;;
8232;SDS011;4157;48.074;9.952;2023-05-23T13:07:37;19.88;;;15.98;;
8232;SDS011;4157;48.074;9.952;2023-05-23T13:10:05;21.77;;;19.48;;
8232;SDS011;4157;48.074;9.952;2023-05-23T13:12:33;20.48;;;18.05;;
8232;SDS011;4157;48.074;9.952;2023-05-23T13:15:00;17.23;;;15.20;;
8232;SDS011;4157;48.074;9.952;2023-05-23T13:17:30;18.55;;;15.13;;
8232;SDS011;4157;48.074;9.952;2023-05-23T13:19:57;20.15;;;15.43;;
8232;SDS011;4157;48.074;9.952;2023-05-23T13:22:27;15.75;;;13.95;;
8232;SDS011;4157;48.074;9.952;2023-05-23T13:24:55;19.15;;;15.77;;
8232;SDS011;4157;48.074;9.952;2023-05-23T13:27:23;20.63;;;14.50;;
8232;SDS011;4157;48.074;9.952;2023-05-23T13:29:51;17.27;;;13.38;;
8232;SDS011;4157;48.074;9.952;2023-05-23T13:32:18;16.60;;;14.25;;
8232;SDS011;4157;48.074;9.952;2023-05-23T13:34:46;17.45;;;13.73;;
8232;SDS011;4157;48.074;9.952;2023-05-23T13:37:14;18.05;;;14.30;;
8232;SDS011;4157;48.074;9.952;2023-05-23T13:39:43;15.82;;;13.55;;
8232;SDS011;4157;48.074;9.952;2023-05-23T13:42:10;17.90;;;13.32;;
8232;SDS011;4157;48.074;9.952;2023-05-23T13:44:38;22.90;;;15.10;;
8232;SDS011;4157;48.074;9.952;2023-05-23T13:47:09;17.98;;;14.65;;
8232;SDS011;4157;48.074;9.952;2023-05-23T13:49:37;17.58;;;15.05;;
8232;SDS011;4157;48.074;9.952;2023-05-23T13:52:05;21.27;;;16.90;;
8232;SDS011;4157;48.074;9.952;2023-05-23T13:54:32;19.95;;;15.35;;
8232;SDS011;4157;48.074;9.952;2023-05-23T13:57:02;16.77;;;14.82;;
8232;SDS011;4157;48.074;9.952;2023-05-23T13:59:30;20.02;;;16.25;;
8232;SDS011;4157;48.074;9.952;2023-05-23T14:01:57;18.13;;;14.65;;
8232;SDS011;4157;48.074;9.952;2023-05-23T14:04:25;18.80;;;14.00;;
8232;SDS011;4157;48.074;9.952;2023-05-23T14:06:53;16.45;;;14.15;;
8232;SDS011;4157;48.074;9.952;2023-05-23T14:09:20;16.73;;;13.88;;
8232;SDS011;4157;48.074;9.952;2023-05-23T14:11:48;19.33;;;14.98;;
8232;SDS011;4157;48.074;9.952;2023-05-23T14:14:18;17.00;;;15.10;;
8232;SDS011;4157;48.074;9.952;2023-05-23T14:16:46;17.30;;;11.75;;
8232;SDS011;4157;48.074;9.952;2023-05-23T14:19:13;15.73;;;12.48;;
8232;SDS011;4157;48.074;9.952;2023-05-23T14:21:41;14.50;;;11.57;;
8232;SDS011;4157;48.074;9.952;2023-05-23T14:24:09;17.25;;;12.00;;
8232;SDS011;4157;48.074;9.952;2023-05-23T14:26:36;15.65;;;12.95;;
8232;SDS011;4157;48.074;9.952;2023-05-23T14:29:04;15.95;;;12.80;;
8232;SDS011;4157;48.074;9.952;2023-05-23T14:31:33;18.17;;;12.50;;
8232;SDS011;4157;48.074;9.952;2023-05-23T14:34:01;18.15;;;11.98;;
8232;SDS011;4157;48.074;9.952;2023-05-23T14:36:29;17.00;;;12.18;;
8232;SDS011;4157;48.074;9.952;2023-05-23T14:38:57;12.77;;;10.65;;
8232;SDS011;4157;48.074;9.952;2023-05-23T14:41:26;13.75;;;10.75;;
8232;SDS011;4157;48.074;9.952;2023-05-23T14:43:54;14.60;;;11.13;;
8232;SDS011;4157;48.074;9.952;2023-05-23T14:46:22;12.30;;;11.00;;
8232;SDS011;4157;48.074;9.952;2023-05-23T14:48:51;25.20;;;12.43;;
8232;SDS011;4157;48.074;9.952;2023-05-23T14:51:19;16.13;;;12.65;;
8232;SDS011;4157;48.074;9.952;2023-05-23T14:53:46;15.38;;;13.48;;
8232;SDS011;4157;48.074;9.952;2023-05-23T14:56:14;15.77;;;13.07;;
8232;SDS011;4157;48.074;9.952;2023-05-23T14:58:42;14.77;;;11.82;;
8232;SDS011;4157;48.074;9.952;2023-05-23T15:01:10;15.25;;;11.90;;